createdAt,value
2022-11-28T00:01:52.255Z,7.10
2022-11-28T00:04:20.971Z,7.10
2022-11-28T00:06:50.999Z,7.10
2022-11-28T00:09:20.844Z,7.10
2022-11-28T00:11:50.971Z,7.10
2022-11-28T00:14:21.310Z,7.20
2022-11-28T00:16:51.833Z,7.10
2022-11-28T00:19:20.338Z,7.10
2022-11-28T00:21:49.115Z,7.20
2022-11-28T00:24:17.890Z,7.20
2022-11-28T00:26:46.545Z,7.20
2022-11-28T00:29:15.062Z,7.20
2022-11-28T00:31:44.332Z,7.20
2022-11-28T00:34:16.382Z,7.20
2022-11-28T00:36:47.094Z,7.20
2022-11-28T00:39:16.631Z,7.20
2022-11-28T00:41:45.752Z,7.20
2022-11-28T00:44:15.060Z,7.20
2022-11-28T00:46:44.231Z,7.30
2022-11-28T00:49:14.714Z,7.30
2022-11-28T00:51:43.512Z,7.30
2022-11-28T00:54:12.331Z,7.30
2022-11-28T00:56:41.735Z,7.30
2022-11-28T00:59:10.716Z,7.30
2022-11-28T01:01:41.068Z,7.30
2022-11-28T01:04:12.083Z,7.30
2022-11-28T01:06:44.023Z,7.30
2022-11-28T01:09:15.129Z,7.30
2022-11-28T01:11:45.014Z,7.20
2022-11-28T01:14:14.875Z,7.20
2022-11-28T01:16:44.103Z,7.20
2022-11-28T01:19:14.208Z,7.20
2022-11-28T01:21:44.912Z,7.20
2022-11-28T01:24:13.679Z,7.30
2022-11-28T01:26:43.506Z,7.30
2022-11-28T01:29:12.925Z,7.30
2022-11-28T01:31:42.352Z,7.30
2022-11-28T01:34:11.194Z,7.30
2022-11-28T01:36:39.787Z,7.30
2022-11-28T01:39:11.186Z,7.30
2022-11-28T01:41:40.724Z,7.40
2022-11-28T01:44:47.382Z,7.40
2022-11-28T01:47:19.986Z,7.40
2022-11-28T01:49:50.316Z,7.40
2022-11-28T01:52:21.781Z,7.40
2022-11-28T01:54:54.696Z,7.30
2022-11-28T01:57:26.853Z,7.40
2022-11-28T01:59:59.922Z,7.40
2022-11-28T02:02:36.172Z,7.40
2022-11-28T02:05:05.569Z,7.40
2022-11-28T02:07:34.821Z,7.50
2022-11-28T02:10:05.058Z,7.40
2022-11-28T02:12:46.697Z,7.50
2022-11-28T02:15:35.482Z,7.40
2022-11-28T02:18:23.390Z,7.40
2022-11-28T02:21:24.442Z,7.40
2022-11-28T02:24:26.539Z,7.40
2022-11-28T02:27:08.980Z,7.50
2022-11-28T02:30:03.282Z,7.50
2022-11-28T02:32:44.231Z,7.50
2022-11-28T02:35:20.040Z,7.50
2022-11-28T02:38:01.761Z,7.40
2022-11-28T02:40:38.949Z,7.40
2022-11-28T02:43:15.966Z,7.40
2022-11-28T02:45:51.714Z,7.40
2022-11-28T02:48:31.010Z,7.30
2022-11-28T02:51:05.358Z,7.30
2022-11-28T02:53:38.213Z,7.30
2022-11-28T02:56:07.907Z,7.20
2022-11-28T02:58:38.614Z,7.20
2022-11-28T03:01:14.166Z,7.20
2022-11-28T03:04:07.474Z,7.20
2022-11-28T03:06:45.226Z,7.20
2022-11-28T03:09:31.684Z,7.10
2022-11-28T03:12:10.462Z,7.10
2022-11-28T03:14:51.270Z,7.10
2022-11-28T03:17:26.601Z,7.10
2022-11-28T03:20:12.187Z,7.10
2022-11-28T03:22:46.612Z,7.10
2022-11-28T03:25:24.290Z,7.10
2022-11-28T03:27:58.544Z,7.10
2022-11-28T03:30:31.698Z,7.10
2022-11-28T03:33:04.174Z,7.10
2022-11-28T03:35:38.190Z,7.10
2022-11-28T03:38:12.245Z,7.10
2022-11-28T03:40:46.027Z,7.10
2022-11-28T03:43:19.782Z,7.10
2022-11-28T03:45:53.162Z,7.10
2022-11-28T03:48:26.584Z,7.10
2022-11-28T03:51:01.427Z,7.10
2022-11-28T03:53:34.639Z,7.10
2022-11-28T03:56:09.136Z,7.10
2022-11-28T03:58:41.714Z,7.10
2022-11-28T04:01:19.634Z,7.10
2022-11-28T04:03:55.300Z,7.00
2022-11-28T04:06:30.083Z,7.00
2022-11-28T04:09:03.502Z,7.00
2022-11-28T04:11:38.978Z,7.00
2022-11-28T04:14:13.959Z,7.00
2022-11-28T04:16:53.851Z,7.00
2022-11-28T04:19:29.282Z,7.00
2022-11-28T04:22:05.122Z,7.00
2022-11-28T04:24:39.440Z,6.90
2022-11-28T04:27:11.622Z,7.00
2022-11-28T04:29:45.751Z,6.90
2022-11-28T04:32:16.612Z,7.00
2022-11-28T04:34:48.408Z,6.90
2022-11-28T04:37:19.878Z,7.00
2022-11-28T04:39:50.695Z,7.00
2022-11-28T04:42:23.095Z,6.90
2022-11-28T04:44:56.235Z,7.00
2022-11-28T04:47:26.130Z,7.00
2022-11-28T04:49:56.878Z,7.00
2022-11-28T04:52:31.859Z,6.90
2022-11-28T04:55:07.103Z,6.90
2022-11-28T04:57:39.199Z,6.90
2022-11-28T05:00:12.255Z,6.90
2022-11-28T05:02:43.236Z,6.90
2022-11-28T05:05:15.467Z,6.90
2022-11-28T05:07:46.057Z,6.90
2022-11-28T05:10:16.343Z,6.90
2022-11-28T05:12:45.167Z,6.90
2022-11-28T05:15:19.167Z,6.80
2022-11-28T05:17:48.602Z,6.80
2022-11-28T05:20:20.237Z,6.80
2022-11-28T05:22:51.010Z,6.80
2022-11-28T05:25:20.292Z,6.80
2022-11-28T05:27:49.304Z,6.80
2022-11-28T05:30:19.262Z,6.80
2022-11-28T05:32:48.480Z,6.80
2022-11-28T05:35:17.562Z,6.80
2022-11-28T05:37:46.582Z,6.80
2022-11-28T05:40:18.091Z,6.70
2022-11-28T05:42:47.746Z,6.80
2022-11-28T05:45:16.210Z,6.80
2022-11-28T05:47:44.554Z,6.80
2022-11-28T05:50:13.316Z,6.80
2022-11-28T05:52:41.568Z,6.80
2022-11-28T05:55:10.804Z,6.70
2022-11-28T05:57:40.767Z,6.70
2022-11-28T06:00:10.593Z,6.70
2022-11-28T06:02:42.115Z,6.70
2022-11-28T06:05:27.751Z,6.70
2022-11-28T06:07:59.122Z,6.70
2022-11-28T06:10:27.466Z,6.70
2022-11-28T06:12:57.358Z,6.60
2022-11-28T06:15:31.683Z,6.60
2022-11-28T06:18:02.233Z,6.60
2022-11-28T06:20:30.666Z,6.60
2022-11-28T06:22:59.212Z,6.60
2022-11-28T06:25:27.666Z,6.60
2022-11-28T06:27:57.907Z,6.50
2022-11-28T06:30:26.570Z,6.50
2022-11-28T06:32:54.946Z,6.60
2022-11-28T06:35:24.383Z,6.60
2022-11-28T06:37:52.799Z,6.60
2022-11-28T06:40:21.346Z,6.60
2022-11-28T06:42:51.289Z,6.60
2022-11-28T06:45:21.238Z,6.60
2022-11-28T06:47:49.636Z,6.60
2022-11-28T06:50:18.060Z,6.60
2022-11-28T06:52:46.491Z,6.60
2022-11-28T06:55:15.087Z,6.60
2022-11-28T06:57:43.400Z,6.60
2022-11-28T07:00:12.719Z,6.60
2022-11-28T07:02:42.664Z,6.60
2022-11-28T07:05:11.343Z,6.60
2022-11-28T07:07:53.357Z,6.70
2022-11-28T07:10:23.160Z,6.70
2022-11-28T07:12:55.795Z,6.70
2022-11-28T07:15:30.231Z,6.70
2022-11-28T07:18:00.310Z,6.70
2022-11-28T07:20:28.860Z,6.70
2022-11-28T07:22:57.442Z,6.70
2022-11-28T07:25:25.828Z,6.70
2022-11-28T07:27:54.188Z,6.70
2022-11-28T07:30:23.471Z,6.70
2022-11-28T07:32:51.974Z,6.70
2022-11-28T07:35:21.832Z,6.80
2022-11-28T07:37:50.869Z,6.80
2022-11-28T07:40:20.667Z,6.80
2022-11-28T07:42:49.356Z,6.80
2022-11-28T07:45:17.955Z,6.80
2022-11-28T07:47:46.369Z,6.80
2022-11-28T07:50:14.903Z,6.80
2022-11-28T07:52:45.035Z,6.80
2022-11-28T07:55:13.580Z,6.80
2022-11-28T07:57:42.000Z,6.80
2022-11-28T08:00:11.093Z,6.90
2022-11-28T08:02:40.877Z,6.90
2022-11-28T08:05:10.125Z,6.90
2022-11-28T08:07:39.323Z,6.90
2022-11-28T08:10:10.818Z,7.00
2022-11-28T08:12:39.390Z,7.00
2022-11-28T08:15:08.377Z,7.00
2022-11-28T08:17:37.188Z,7.10
2022-11-28T08:20:06.502Z,7.10
2022-11-28T08:22:35.088Z,7.10
2022-11-28T08:25:03.640Z,7.20
2022-11-28T08:27:34.331Z,7.10
2022-11-28T08:30:02.848Z,7.10
2022-11-28T08:32:31.776Z,7.20
2022-11-28T08:35:00.478Z,7.20
2022-11-28T08:37:30.460Z,7.20
2022-11-28T08:39:58.938Z,7.20
2022-11-28T08:42:29.256Z,7.30
2022-11-28T08:44:59.479Z,7.30
2022-11-28T08:47:28.158Z,7.30
2022-11-28T08:49:56.606Z,7.30
2022-11-28T08:52:25.688Z,7.30
2022-11-28T08:54:54.671Z,7.30
2022-11-28T08:57:23.371Z,7.30
2022-11-28T08:59:51.928Z,7.30
2022-11-28T09:02:25.766Z,7.40
2022-11-28T09:04:54.596Z,7.40
2022-11-28T09:07:23.201Z,7.40
2022-11-28T09:09:51.787Z,7.50
2022-11-28T09:12:20.261Z,7.50
2022-11-28T09:14:48.858Z,7.50
2022-11-28T09:17:17.606Z,7.50
2022-11-28T09:19:47.665Z,7.50
2022-11-28T09:22:16.112Z,7.50
2022-11-28T09:24:44.656Z,7.50
2022-11-28T09:27:13.310Z,7.50
2022-11-28T09:29:42.150Z,7.50
2022-11-28T09:32:11.193Z,7.40
2022-11-28T09:34:39.852Z,7.40
2022-11-28T09:37:09.993Z,7.30
2022-11-28T09:39:50.659Z,7.30
2022-11-28T09:42:33.475Z,7.30
2022-11-28T09:45:05.339Z,7.30
2022-11-28T09:47:38.103Z,7.30
2022-11-28T09:50:15.499Z,7.30
2022-11-28T09:52:51.108Z,7.40
2022-11-28T09:55:30.824Z,7.30
2022-11-28T09:58:01.152Z,7.30
2022-11-28T10:00:36.190Z,7.30
2022-11-28T10:03:25.837Z,7.30
2022-11-28T10:06:03.266Z,7.30
2022-11-28T10:08:41.442Z,7.40
2022-11-28T10:11:27.282Z,7.40
2022-11-28T10:14:08.384Z,7.40
2022-11-28T10:16:47.551Z,7.40
2022-11-28T10:19:52.375Z,7.50
2022-11-28T10:22:18.270Z,7.50
2022-11-28T10:24:53.462Z,7.60
2022-11-28T10:27:27.134Z,7.60
2022-11-28T10:30:01.445Z,7.60
2022-11-28T10:32:34.243Z,7.60
2022-11-28T10:35:05.714Z,7.60
2022-11-28T10:37:37.810Z,7.70
2022-11-28T10:40:19.504Z,7.70
2022-11-28T10:42:55.719Z,7.70
2022-11-28T10:45:29.112Z,7.80
2022-11-28T10:48:38.952Z,7.80
2022-11-28T10:51:17.068Z,7.80
2022-11-28T10:53:58.691Z,7.80
2022-11-28T10:56:38.753Z,7.80
2022-11-28T10:59:18.090Z,7.90
2022-11-28T11:01:50.168Z,7.90
2022-11-28T11:04:21.836Z,8.00
2022-11-28T11:07:15.075Z,8.00
2022-11-28T11:09:48.046Z,8.00
2022-11-28T11:12:23.063Z,8.10
2022-11-28T11:14:51.876Z,8.10
2022-11-28T11:17:34.380Z,8.00
2022-11-28T11:20:31.670Z,8.00
2022-11-28T11:23:02.778Z,8.00
2022-11-28T11:25:33.615Z,8.00
2022-11-28T11:28:06.225Z,8.00
2022-11-28T11:30:40.900Z,8.00
2022-11-28T11:33:18.287Z,7.90
2022-11-28T11:35:49.532Z,8.00
2022-11-28T11:38:31.168Z,7.90
2022-11-28T11:41:21.278Z,8.00
2022-11-28T11:43:52.004Z,7.90
2022-11-28T11:46:20.692Z,7.90
2022-11-28T11:48:52.247Z,7.90
2022-11-28T11:51:26.971Z,7.90
2022-11-28T11:54:03.361Z,7.90
2022-11-28T11:56:36.866Z,7.90
2022-11-28T11:59:12.194Z,7.90
2022-11-28T12:01:41.920Z,7.90
2022-11-28T12:04:43.651Z,7.90
2022-11-28T12:07:19.030Z,7.90
2022-11-28T12:09:52.661Z,7.80
2022-11-28T12:12:26.302Z,7.80
2022-11-28T12:14:57.418Z,7.90
2022-11-28T12:17:53.350Z,7.90
2022-11-28T12:20:40.141Z,7.90
2022-11-28T12:23:24.618Z,7.80
2022-11-28T12:26:03.632Z,7.80
2022-11-28T12:28:46.461Z,7.90
2022-11-28T12:31:35.993Z,7.90
2022-11-28T12:34:15.258Z,7.80
2022-11-28T12:36:52.219Z,7.80
2022-11-28T12:39:32.331Z,7.80
2022-11-28T12:42:49.365Z,7.80
2022-11-28T12:45:37.995Z,7.80
2022-11-28T12:48:30.386Z,7.80
2022-11-28T12:51:04.753Z,7.90
2022-11-28T12:53:49.216Z,7.90
2022-11-28T12:56:34.775Z,7.90
2022-11-28T12:59:19.363Z,8.00
2022-11-28T13:02:09.425Z,8.00
2022-11-28T13:05:05.960Z,8.00
2022-11-28T13:07:56.546Z,8.00
2022-11-28T13:10:33.204Z,8.10
2022-11-28T13:13:11.675Z,8.00
2022-11-28T13:16:07.304Z,8.00
2022-11-28T13:18:46.052Z,8.00
2022-11-28T13:21:36.663Z,8.00
2022-11-28T13:24:22.463Z,8.00
2022-11-28T13:27:04.451Z,8.00
2022-11-28T13:29:48.732Z,8.00
2022-11-28T13:32:26.236Z,8.10
2022-11-28T13:35:02.165Z,8.10
2022-11-28T13:40:35.190Z,8.10
2022-11-28T13:43:22.513Z,8.10
2022-11-28T13:45:58.509Z,8.10
2022-11-28T13:49:21.132Z,8.10
2022-11-28T13:52:32.061Z,8.10
2022-11-28T13:55:45.898Z,8.10
2022-11-28T13:58:26.009Z,8.20
2022-11-28T14:01:21.095Z,8.10
2022-11-28T14:04:12.059Z,8.20
2022-11-28T14:06:46.481Z,8.20
2022-11-28T14:09:35.806Z,8.20
2022-11-28T14:12:24.597Z,8.30
2022-11-28T14:15:17.711Z,8.30
2022-11-28T14:18:01.394Z,8.30
2022-11-28T14:20:44.112Z,8.30
2022-11-28T14:23:25.002Z,8.30
2022-11-28T14:25:59.779Z,8.30
2022-11-28T14:28:40.562Z,8.30
2022-11-28T14:31:27.397Z,8.30
2022-11-28T14:34:16.588Z,8.30
2022-11-28T14:36:48.527Z,8.30
2022-11-28T14:39:39.879Z,8.30
2022-11-28T14:45:46.786Z,8.30
2022-11-28T14:48:31.371Z,8.20
2022-11-28T14:51:03.007Z,8.20
2022-11-28T14:53:49.508Z,8.20
2022-11-28T14:56:29.335Z,8.20
2022-11-28T14:59:01.938Z,8.30
2022-11-28T15:01:56.425Z,8.30
2022-11-28T15:04:49.466Z,8.30
2022-11-28T15:07:31.184Z,8.30
2022-11-28T15:10:09.414Z,8.30
2022-11-28T15:12:52.191Z,8.30
2022-11-28T15:15:22.931Z,8.30
2022-11-28T15:17:55.504Z,8.30
2022-11-28T15:20:30.148Z,8.30
2022-11-28T15:23:00.404Z,8.30
2022-11-28T15:25:35.793Z,8.30
2022-11-28T15:28:15.964Z,8.20
2022-11-28T15:30:47.545Z,8.30
2022-11-28T15:33:18.204Z,8.30
2022-11-28T15:35:59.944Z,8.30
2022-11-28T15:38:31.760Z,8.30
2022-11-28T15:41:02.354Z,8.20
2022-11-28T15:43:33.402Z,8.30
2022-11-28T15:46:03.415Z,8.30
2022-11-28T15:48:41.684Z,8.30
2022-11-28T15:51:23.739Z,8.30
2022-11-28T15:53:52.650Z,8.20
2022-11-28T15:56:22.198Z,8.30
2022-11-28T15:58:53.151Z,8.30
2022-11-28T16:01:23.735Z,8.30
2022-11-28T16:04:41.025Z,8.30
2022-11-28T16:08:13.639Z,8.30
2022-11-28T16:10:48.778Z,8.30
2022-11-28T16:13:21.593Z,8.30
2022-11-28T16:15:58.644Z,8.40
2022-11-28T16:22:36.400Z,8.30
2022-11-28T16:26:07.408Z,8.30
2022-11-28T16:29:40.943Z,8.30
2022-11-28T16:32:39.236Z,8.30
2022-11-28T16:35:36.964Z,8.40
2022-11-28T16:38:25.406Z,8.30
2022-11-28T16:41:05.808Z,8.30
2022-11-28T16:44:05.869Z,8.40
2022-11-28T16:46:40.299Z,8.40
2022-11-28T16:49:39.767Z,8.40
2022-11-28T16:56:28.206Z,8.40
2022-11-28T16:59:36.571Z,8.50
2022-11-28T17:03:24.159Z,8.50
2022-11-28T17:05:49.909Z,8.40
2022-11-28T17:11:10.825Z,8.50
2022-11-28T17:13:59.603Z,8.50
2022-11-28T17:16:37.134Z,8.40
2022-11-28T17:19:12.046Z,8.40
2022-11-28T17:21:46.547Z,8.50
2022-11-28T17:24:27.673Z,8.50
2022-11-28T17:27:05.505Z,8.50
2022-11-28T17:33:31.112Z,8.60
2022-11-28T17:36:04.376Z,8.60
2022-11-28T17:38:33.965Z,8.60
2022-11-28T17:41:11.254Z,8.70
2022-11-28T17:43:42.809Z,8.70
2022-11-28T17:46:13.563Z,8.70
2022-11-28T17:48:43.676Z,8.70
2022-11-28T17:51:15.167Z,8.70
2022-11-28T17:53:49.682Z,8.70
2022-11-28T17:56:29.545Z,8.80
2022-11-28T18:00:04.781Z,8.80
2022-11-28T18:02:24.837Z,8.80
2022-11-28T18:04:54.775Z,8.80
2022-11-28T18:07:35.256Z,8.80
2022-11-28T18:10:07.820Z,8.80
2022-11-28T18:12:37.392Z,8.80
2022-11-28T18:15:38.556Z,8.80
2022-11-28T18:22:44.441Z,8.80
2022-11-28T18:25:28.995Z,8.80
2022-11-28T18:28:27.289Z,8.90
2022-11-28T18:31:55.570Z,8.90
2022-11-28T18:38:46.600Z,8.90
2022-11-28T18:41:21.296Z,8.90
2022-11-28T18:44:08.202Z,8.90
2022-11-28T18:47:05.907Z,8.90
2022-11-28T18:50:06.637Z,8.90
2022-11-28T18:52:59.057Z,8.80
2022-11-28T18:55:46.724Z,8.90
2022-11-28T18:58:15.428Z,8.90
2022-11-28T19:04:38.115Z,9.00
2022-11-28T19:07:06.821Z,9.00
2022-11-28T19:09:35.544Z,9.00
2022-11-28T19:12:06.347Z,9.00
2022-11-28T19:14:35.174Z,9.00
2022-11-28T19:17:04.910Z,9.00
2022-11-28T19:19:34.108Z,9.00
2022-11-28T19:22:03.853Z,9.00
2022-11-28T19:24:33.578Z,9.10
2022-11-28T19:27:02.877Z,9.10
2022-11-28T19:29:33.340Z,9.00
2022-11-28T19:32:04.576Z,9.10
2022-11-28T19:34:33.616Z,9.10
2022-11-28T19:37:02.418Z,9.00
2022-11-28T19:39:31.169Z,9.10
2022-11-28T19:42:02.171Z,9.10
2022-11-28T19:44:30.737Z,9.10
2022-11-28T19:47:01.272Z,9.00
2022-11-28T19:49:31.121Z,9.00
2022-11-28T19:52:00.934Z,9.10
2022-11-28T19:54:30.281Z,9.10
2022-11-28T19:59:45.445Z,9.00
2022-11-28T20:02:30.432Z,9.10
2022-11-28T20:05:22.789Z,9.10
2022-11-28T20:08:08.325Z,9.10
2022-11-28T20:10:46.728Z,9.10
2022-11-28T20:13:19.422Z,9.00
2022-11-28T20:15:50.497Z,9.00
2022-11-28T20:18:22.227Z,9.10
2022-11-28T20:20:51.518Z,9.10
2022-11-28T20:23:20.400Z,9.10
2022-11-28T20:25:52.749Z,9.10
2022-11-28T20:28:22.069Z,9.10
2022-11-28T20:30:56.912Z,9.20
2022-11-28T20:33:33.026Z,9.10
2022-11-28T20:36:37.886Z,9.10
2022-11-28T20:42:07.002Z,9.10
2022-11-28T20:44:38.125Z,9.10
2022-11-28T20:47:13.541Z,9.10
2022-11-28T20:49:45.143Z,9.10
2022-11-28T20:52:16.577Z,9.20
2022-11-28T20:54:51.959Z,9.20
2022-11-28T20:57:23.899Z,9.10
2022-11-28T21:00:00.970Z,9.10
2022-11-28T21:03:15.522Z,9.10
2022-11-28T21:10:43.550Z,9.10
2022-11-28T21:13:56.385Z,9.10
2022-11-28T21:17:46.172Z,9.10
2022-11-28T21:20:58.202Z,9.00
2022-11-28T21:24:34.001Z,9.00
2022-11-28T21:28:01.701Z,9.10
2022-11-28T21:31:49.898Z,9.10
2022-11-28T21:34:27.731Z,9.10
2022-11-28T21:36:56.096Z,9.00
2022-11-28T21:39:26.011Z,9.10
2022-11-28T21:41:54.515Z,9.10
2022-11-28T21:44:23.049Z,9.10
2022-11-28T21:46:51.776Z,9.20
2022-11-28T21:49:20.462Z,9.20
2022-11-28T21:51:48.814Z,9.20
2022-11-28T21:54:17.274Z,9.20
2022-11-28T21:56:48.326Z,9.20
2022-11-28T21:59:16.880Z,9.20
2022-11-28T22:01:47.562Z,9.20
2022-11-28T22:04:16.069Z,9.10
2022-11-28T22:06:45.008Z,9.10
2022-11-28T22:09:14.078Z,9.20
2022-11-28T22:11:42.414Z,9.20
2022-11-28T22:14:12.642Z,9.10
2022-11-28T22:16:41.185Z,9.20
2022-11-28T22:19:10.746Z,9.10
2022-11-28T22:21:56.676Z,9.20
2022-11-28T22:24:26.141Z,9.20
2022-11-28T22:26:56.488Z,9.20
2022-11-28T22:29:26.959Z,9.20
2022-11-28T22:31:55.696Z,9.20
2022-11-28T22:34:24.954Z,9.20
2022-11-28T22:36:53.751Z,9.20
2022-11-28T22:39:22.942Z,9.10
2022-11-28T22:41:51.254Z,9.20
2022-11-28T22:44:21.020Z,9.20
2022-11-28T22:46:51.017Z,9.20
2022-11-28T22:49:20.364Z,9.20
2022-11-28T22:51:49.288Z,9.20
2022-11-28T22:54:18.255Z,9.20
2022-11-28T22:56:46.674Z,9.20
2022-11-28T22:59:17.344Z,9.20
2022-11-28T23:01:45.904Z,9.20
2022-11-28T23:04:16.266Z,9.20
2022-11-28T23:06:45.509Z,9.20
2022-11-28T23:09:15.320Z,9.20
2022-11-28T23:11:45.774Z,9.20
2022-11-28T23:14:15.860Z,9.20
2022-11-28T23:16:46.102Z,9.20
2022-11-28T23:19:19.041Z,9.20
2022-11-28T23:21:50.083Z,9.10
2022-11-28T23:24:23.578Z,9.10
2022-11-28T23:26:53.525Z,9.20
2022-11-28T23:29:22.262Z,9.20
2022-11-28T23:31:50.862Z,9.10
2022-11-28T23:34:20.800Z,9.10
2022-11-28T23:36:49.546Z,9.20
2022-11-28T23:39:19.865Z,9.10
2022-11-28T23:41:48.803Z,9.20
2022-11-28T23:44:18.650Z,9.20
2022-11-28T23:46:48.292Z,9.20
2022-11-28T23:49:16.841Z,9.20
2022-11-28T23:51:46.939Z,9.10
2022-11-28T23:54:15.531Z,9.10
2022-11-28T23:56:44.621Z,9.20
2022-11-28T23:59:13.616Z,9.20
